createdAt,value
2022-11-06T00:01:47.495Z,7.352905
2022-11-06T00:05:12.671Z,7.28241
2022-11-06T00:08:37.966Z,7.211914
2022-11-06T00:12:03.232Z,7.101135
2022-11-06T00:15:28.450Z,7.16156
2022-11-06T00:18:53.695Z,7.151489
2022-11-06T00:22:18.961Z,7.060852
2022-11-06T00:25:44.213Z,7.101135
2022-11-06T00:29:09.542Z,7.070923
2022-11-06T00:32:34.667Z,7.03064
2022-11-06T00:35:59.917Z,7.060852
2022-11-06T00:39:25.138Z,7.091064
2022-11-06T00:42:50.382Z,7.091064
2022-11-06T00:46:15.649Z,7.101135
2022-11-06T00:49:40.862Z,7.091064
2022-11-06T00:53:06.114Z,7.101135
2022-11-06T00:56:31.354Z,7.091064
2022-11-06T00:59:56.606Z,6.990356
2022-11-06T01:03:21.864Z,6.980286
2022-11-06T01:06:47.139Z,7.091064
2022-11-06T01:10:12.308Z,7.070923
2022-11-06T01:13:37.565Z,7.020569
2022-11-06T01:17:02.833Z,6.940002
2022-11-06T01:20:28.133Z,6.889648
2022-11-06T01:23:53.305Z,6.809082
2022-11-06T01:27:26.896Z,6.728516
2022-11-06T01:30:43.769Z,6.809082
2022-11-06T01:34:09.043Z,6.90979
2022-11-06T01:37:34.387Z,6.980286
2022-11-06T01:40:59.536Z,6.950073
2022-11-06T01:44:24.759Z,6.980286
2022-11-06T01:47:50.043Z,6.980286
2022-11-06T01:51:15.259Z,6.919861
2022-11-06T01:54:40.532Z,6.869507
2022-11-06T01:58:05.731Z,6.839294
2022-11-06T02:01:31.043Z,6.879578
2022-11-06T02:04:56.258Z,6.799011
2022-11-06T02:08:21.488Z,6.758728
2022-11-06T02:11:46.745Z,6.698303
2022-11-06T02:15:11.982Z,6.637878
2022-11-06T02:18:37.213Z,6.587524
2022-11-06T02:22:02.479Z,6.40625
2022-11-06T02:25:27.726Z,6.325684
2022-11-06T02:28:52.984Z,6.325684
2022-11-06T02:32:18.222Z,6.265259
2022-11-06T02:35:43.465Z,6.245117
2022-11-06T02:39:08.699Z,6.295471
2022-11-06T02:42:33.959Z,6.265259
2022-11-06T02:45:59.211Z,6.063843
2022-11-06T02:49:24.389Z,6.114197
2022-11-06T02:52:49.632Z,6.094055
2022-11-06T02:56:14.861Z,6.03363
2022-11-06T02:59:40.107Z,6.003418
2022-11-06T03:03:05.392Z,6.083984
2022-11-06T03:06:30.560Z,6.144409
2022-11-06T03:09:55.804Z,6.214905
2022-11-06T03:13:21.012Z,6.194763
2022-11-06T03:16:46.244Z,6.15448
2022-11-06T03:20:11.729Z,6.083984
2022-11-06T03:23:36.714Z,6.083984
2022-11-06T03:27:01.954Z,6.03363
2022-11-06T03:30:27.212Z,6.094055
2022-11-06T03:33:52.473Z,6.083984
2022-11-06T03:37:17.751Z,6.013489
2022-11-06T03:40:42.959Z,6.003418
2022-11-06T03:44:08.158Z,5.942993
2022-11-06T03:47:33.394Z,5.852356
2022-11-06T03:50:58.625Z,5.862427
2022-11-06T03:54:23.869Z,5.832214
2022-11-06T03:57:49.095Z,5.862427
2022-11-06T04:01:14.329Z,5.812073
2022-11-06T04:04:39.603Z,5.711365
2022-11-06T04:08:04.798Z,5.862427
2022-11-06T04:11:30.053Z,5.852356
2022-11-06T04:14:55.267Z,5.892639
2022-11-06T04:18:20.506Z,6.043701
2022-11-06T04:21:45.726Z,6.114197
2022-11-06T04:25:10.969Z,6.063843
2022-11-06T04:28:36.217Z,5.942993
2022-11-06T04:32:01.423Z,5.932922
2022-11-06T04:35:26.677Z,6.003418
2022-11-06T04:38:51.908Z,6.063843
2022-11-06T04:42:17.129Z,6.063843
2022-11-06T04:45:42.387Z,6.043701
2022-11-06T04:49:07.595Z,6.114197
2022-11-06T04:52:32.826Z,6.114197
2022-11-06T04:55:58.078Z,6.174622
2022-11-06T04:59:23.319Z,6.184692
2022-11-06T05:02:48.568Z,6.043701
2022-11-06T05:06:13.814Z,6.094055
2022-11-06T05:09:39.031Z,6.083984
2022-11-06T05:13:04.233Z,6.083984
2022-11-06T05:16:29.470Z,6.013489
2022-11-06T05:19:54.742Z,6.003418
2022-11-06T05:23:19.955Z,5.973206
2022-11-06T05:26:45.196Z,6.013489
2022-11-06T05:30:10.421Z,6.083984
2022-11-06T05:33:35.694Z,6.124268
2022-11-06T05:37:01.017Z,6.174622
2022-11-06T05:40:26.138Z,6.174622
2022-11-06T05:43:51.365Z,6.144409
2022-11-06T05:47:16.604Z,6.094055
2022-11-06T05:50:41.850Z,6.003418
2022-11-06T05:54:07.114Z,6.063843
2022-11-06T05:57:32.304Z,6.063843
2022-11-06T06:00:57.584Z,6.003418
2022-11-06T06:04:22.822Z,6.003418
2022-11-06T06:07:48.070Z,6.063843
2022-11-06T06:11:13.357Z,6.114197
2022-11-06T06:14:38.640Z,6.063843
2022-11-06T06:18:03.967Z,6.063843
2022-11-06T06:21:29.239Z,6.094055
2022-11-06T06:24:54.643Z,5.912781
2022-11-06T06:28:20.161Z,5.932922
2022-11-06T06:31:45.518Z,5.862427
2022-11-06T06:35:10.816Z,5.932922
2022-11-06T06:38:36.594Z,5.942993
2022-11-06T06:42:01.852Z,5.912781
2022-11-06T06:45:31.439Z,5.791931
2022-11-06T06:48:56.893Z,5.721436
2022-11-06T06:52:29.535Z,5.741577
2022-11-06T06:56:02.110Z,5.741577
2022-11-06T06:59:27.431Z,5.671082
2022-11-06T07:02:52.998Z,5.630798
2022-11-06T07:06:18.237Z,5.580444
2022-11-06T07:09:43.550Z,5.540161
2022-11-06T07:13:13.211Z,5.449524
2022-11-06T07:16:43.723Z,5.429382
2022-11-06T07:20:16.926Z,5.509949
2022-11-06T07:23:47.677Z,5.570374
2022-11-06T07:27:20.867Z,5.580444
2022-11-06T07:30:49.390Z,5.509949
2022-11-06T07:34:39.061Z,5.449524
2022-11-06T07:38:17.277Z,5.53009
2022-11-06T07:41:59.202Z,5.671082
2022-11-06T07:45:28.963Z,5.78186
2022-11-06T07:48:54.273Z,5.892639
2022-11-06T07:52:19.539Z,5.963135
2022-11-06T07:55:44.890Z,5.963135
2022-11-06T07:59:10.128Z,6.003418
2022-11-06T08:02:35.446Z,5.993347
2022-11-06T08:06:00.649Z,5.963135
2022-11-06T08:09:25.970Z,5.963135
2022-11-06T08:12:51.866Z,6.063843
2022-11-06T08:16:18.157Z,6.063843
2022-11-06T08:19:43.514Z,5.963135
2022-11-06T08:23:08.914Z,5.963135
2022-11-06T08:26:34.219Z,5.942993
2022-11-06T08:29:59.791Z,5.892639
2022-11-06T08:33:25.207Z,5.822144
2022-11-06T08:36:50.582Z,5.852356
2022-11-06T08:40:15.950Z,5.90271
2022-11-06T08:43:41.299Z,5.912781
2022-11-06T08:47:06.642Z,5.90271
2022-11-06T08:50:31.900Z,5.90271
2022-11-06T08:53:57.292Z,6.003418
2022-11-06T08:57:22.742Z,6.043701
2022-11-06T09:00:48.079Z,6.043701
2022-11-06T09:04:13.585Z,5.973206
2022-11-06T09:07:38.725Z,5.973206
2022-11-06T09:11:03.966Z,6.083984
2022-11-06T09:14:29.250Z,6.124268
2022-11-06T09:17:54.499Z,6.184692
2022-11-06T09:21:19.788Z,6.335754
2022-11-06T09:25:02.404Z,6.376038
2022-11-06T09:28:11.254Z,6.476746
2022-11-06T09:31:36.548Z,6.53717
2022-11-06T09:35:01.811Z,6.738586
2022-11-06T09:38:27.124Z,6.849365
2022-11-06T09:41:52.300Z,7.020569
2022-11-06T09:45:17.549Z,7.070923
2022-11-06T09:48:42.882Z,7.121277
2022-11-06T09:52:08.123Z,7.03064
2022-11-06T09:55:33.390Z,7.091064
2022-11-06T09:58:58.723Z,7.131348
2022-11-06T10:02:24.068Z,7.121277
2022-11-06T10:05:49.156Z,7.020569
2022-11-06T10:09:14.397Z,7.070923
2022-11-06T10:12:39.831Z,7.151489
2022-11-06T10:16:15.871Z,7.242126
2022-11-06T10:19:41.244Z,7.342834
2022-11-06T10:23:35.259Z,7.352905
2022-11-06T10:27:00.738Z,7.524109
2022-11-06T10:30:26.351Z,7.705383
2022-11-06T10:33:51.582Z,7.715454
2022-11-06T10:37:16.824Z,7.78595
2022-11-06T10:40:46.569Z,8.017578
2022-11-06T10:44:12.858Z,8.188782
2022-11-06T10:47:38.417Z,8.249207
2022-11-06T10:51:05.427Z,8.078003
2022-11-06T10:54:35.799Z,7.886658
2022-11-06T10:58:02.020Z,7.866516
2022-11-06T11:01:27.888Z,7.846375
2022-11-06T11:04:57.874Z,7.896729
2022-11-06T11:08:19.563Z,7.977295
2022-11-06T11:11:45.080Z,7.977295
2022-11-06T11:15:10.415Z,8.067932
2022-11-06T11:18:35.749Z,8.229065
2022-11-06T11:22:01.244Z,8.410339
2022-11-06T11:25:26.434Z,8.581543
2022-11-06T11:28:51.752Z,8.682251
2022-11-06T11:32:17.120Z,8.561401
2022-11-06T11:35:42.473Z,8.682251
2022-11-06T11:39:07.745Z,8.79303
2022-11-06T11:42:32.994Z,8.732605
2022-11-06T11:45:58.965Z,8.742676
2022-11-06T11:49:25.266Z,8.762817
2022-11-06T11:52:50.493Z,8.712463
2022-11-06T11:56:15.750Z,8.803101
2022-11-06T11:59:40.964Z,8.79303
2022-11-06T12:03:06.264Z,8.79303
2022-11-06T12:06:31.481Z,8.944092
2022-11-06T12:09:56.738Z,8.944092
2022-11-06T12:13:21.985Z,8.984375
2022-11-06T12:16:47.196Z,9.014587
2022-11-06T12:20:12.514Z,9.125366
2022-11-06T12:23:37.807Z,9.17572
2022-11-06T12:27:03.103Z,9.145508
2022-11-06T12:30:28.481Z,9.014587
2022-11-06T12:34:05.965Z,9.095154
2022-11-06T12:37:19.069Z,9.135437
2022-11-06T12:40:44.341Z,9.054871
2022-11-06T12:44:09.589Z,9.125366
2022-11-06T12:47:34.912Z,9.0448
2022-11-06T12:51:00.171Z,8.954163
2022-11-06T12:54:25.437Z,9.014587
2022-11-06T12:57:50.738Z,9.014587
2022-11-06T13:01:16.026Z,9.0448
2022-11-06T13:04:41.298Z,9.095154
2022-11-06T13:08:06.555Z,9.054871
2022-11-06T13:11:31.866Z,9.075012
2022-11-06T13:14:57.171Z,9.135437
2022-11-06T13:18:22.450Z,9.205933
2022-11-06T13:21:47.816Z,9.286499
2022-11-06T13:25:13.088Z,9.17572
2022-11-06T13:28:38.335Z,9.075012
2022-11-06T13:32:03.610Z,9.105225
2022-11-06T13:35:28.935Z,8.92395
2022-11-06T13:38:54.245Z,8.762817
2022-11-06T13:42:19.487Z,8.611755
2022-11-06T13:45:44.806Z,8.682251
2022-11-06T13:49:10.097Z,8.621826
2022-11-06T13:52:35.383Z,8.470764
2022-11-06T13:56:00.772Z,8.480835
2022-11-06T13:59:29.877Z,8.581543
2022-11-06T14:02:51.769Z,8.531189
2022-11-06T14:06:17.385Z,8.662109
2022-11-06T14:09:42.972Z,8.742676
2022-11-06T14:13:08.493Z,8.662109
2022-11-06T14:16:33.945Z,8.611755
2022-11-06T14:19:59.328Z,8.500977
2022-11-06T14:23:25.177Z,8.551331
2022-11-06T14:26:55.587Z,8.581543
2022-11-06T15:04:36.160Z,7.735596
2022-11-06T15:08:05.795Z,7.705383
2022-11-06T15:11:26.718Z,7.644958
2022-11-06T15:14:52.341Z,7.584534
2022-11-06T15:18:17.820Z,7.453613
2022-11-06T15:21:43.111Z,7.433472
2022-11-06T15:25:08.437Z,7.373047
2022-11-06T15:28:34.016Z,7.252197
2022-11-06T15:31:59.267Z,7.171631
2022-11-06T15:35:24.487Z,6.950073
2022-11-06T15:38:49.811Z,6.980286
2022-11-06T15:42:15.387Z,6.980286
2022-11-06T15:45:42.346Z,6.980286
2022-11-06T15:49:08.577Z,6.950073
2022-11-06T15:52:33.820Z,7.101135
2022-11-06T15:55:59.114Z,7.091064
2022-11-06T15:59:24.423Z,7.121277
2022-11-06T16:02:49.761Z,7.070923
2022-11-06T16:06:14.911Z,6.970215
2022-11-06T16:09:40.176Z,6.849365
2022-11-06T16:13:05.554Z,6.849365
2022-11-06T16:16:30.700Z,6.78894
2022-11-06T16:19:55.965Z,6.799011
2022-11-06T16:23:24.317Z,6.768799
2022-11-06T16:26:46.890Z,6.78894
2022-11-06T16:30:12.154Z,6.768799
2022-11-06T16:33:37.368Z,6.78894
2022-11-06T16:37:02.627Z,6.738586
2022-11-06T16:40:27.868Z,6.728516
2022-11-06T16:43:53.112Z,6.668091
2022-11-06T16:47:18.464Z,6.617737
2022-11-06T16:50:43.596Z,6.668091
2022-11-06T16:54:09.079Z,6.587524
2022-11-06T16:57:34.326Z,6.53717
2022-11-06T17:00:59.731Z,6.506958
2022-11-06T17:04:24.864Z,6.547241
2022-11-06T17:07:50.631Z,6.506958
2022-11-06T17:11:16.028Z,6.506958
2022-11-06T17:14:41.267Z,6.376038
2022-11-06T17:18:06.514Z,6.365967
2022-11-06T17:21:31.791Z,6.265259
2022-11-06T17:24:56.991Z,6.214905
2022-11-06T17:28:22.243Z,6.295471
2022-11-06T17:31:47.488Z,6.245117
2022-11-06T17:35:12.767Z,6.114197
2022-11-06T17:38:37.989Z,6.063843
2022-11-06T17:42:03.310Z,6.013489
2022-11-06T17:45:28.577Z,5.942993
2022-11-06T17:48:53.841Z,5.942993
2022-11-06T17:52:19.092Z,5.993347
2022-11-06T17:55:44.376Z,5.90271
2022-11-06T17:59:09.592Z,5.932922
2022-11-06T18:02:59.490Z,5.993347
2022-11-06T18:06:00.085Z,6.063843
2022-11-06T18:09:25.304Z,6.265259
2022-11-06T18:12:50.567Z,6.325684
2022-11-06T18:16:15.832Z,6.456604
2022-11-06T18:19:41.081Z,6.486816
2022-11-06T18:23:06.366Z,6.506958
2022-11-06T18:26:31.612Z,6.40625
2022-11-06T18:29:56.910Z,6.456604
2022-11-06T18:33:22.131Z,6.426392
2022-11-06T18:36:47.353Z,6.486816
2022-11-06T18:40:12.586Z,6.396179
2022-11-06T18:43:37.812Z,6.295471
2022-11-06T18:47:03.167Z,6.295471
2022-11-06T18:50:28.293Z,6.305542
2022-11-06T18:53:53.509Z,6.396179
2022-11-06T18:57:18.742Z,6.456604
2022-11-06T19:00:43.979Z,6.486816
2022-11-06T19:04:09.335Z,6.577454
2022-11-06T19:07:34.474Z,6.547241
2022-11-06T19:10:59.700Z,6.517029
2022-11-06T19:14:24.924Z,6.547241
2022-11-06T19:17:50.194Z,6.53717
2022-11-06T19:21:15.458Z,6.506958
2022-11-06T19:24:40.635Z,6.53717
2022-11-06T19:28:05.904Z,6.607666
2022-11-06T19:31:31.163Z,6.698303
2022-11-06T19:34:56.393Z,6.698303
2022-11-06T19:38:21.681Z,6.668091
2022-11-06T19:41:46.908Z,6.637878
2022-11-06T19:45:12.127Z,6.688232
2022-11-06T19:48:37.344Z,6.688232
2022-11-06T19:52:41.016Z,6.698303
2022-11-06T19:55:28.086Z,6.688232
2022-11-06T19:58:53.008Z,6.698303
2022-11-06T20:02:18.390Z,6.738586
2022-11-06T20:05:43.434Z,6.809082
2022-11-06T20:09:08.659Z,6.809082
2022-11-06T20:12:33.908Z,6.839294
2022-11-06T20:15:59.108Z,6.919861
2022-11-06T20:19:24.361Z,6.970215
2022-11-06T20:22:49.622Z,6.980286
2022-11-06T20:26:14.872Z,6.980286
2022-11-06T20:29:40.116Z,6.980286
2022-11-06T20:33:05.401Z,6.940002
2022-11-06T20:36:30.606Z,6.990356
2022-11-06T20:39:55.813Z,6.980286
2022-11-06T20:43:21.063Z,6.950073
2022-11-06T20:46:47.860Z,6.919861
2022-11-06T20:50:11.600Z,6.940002
2022-11-06T20:53:36.841Z,6.980286
2022-11-06T20:57:02.110Z,7.050781
2022-11-06T21:00:27.343Z,7.121277
2022-11-06T21:03:52.643Z,7.201843
2022-11-06T21:07:17.859Z,7.302551
2022-11-06T21:10:43.112Z,7.393188
2022-11-06T21:14:08.374Z,7.373047
2022-11-06T21:17:33.629Z,7.252197
2022-11-06T21:20:58.858Z,7.272339
2022-11-06T21:24:24.080Z,7.201843
2022-11-06T21:27:49.349Z,6.990356
2022-11-06T21:31:14.591Z,6.90979
2022-11-06T21:34:39.843Z,6.919861
2022-11-06T21:38:05.131Z,6.849365
2022-11-06T21:41:30.316Z,6.839294
2022-11-06T21:44:55.584Z,6.728516
2022-11-06T21:48:40.444Z,6.768799
2022-11-06T21:51:46.091Z,6.768799
2022-11-06T21:55:11.350Z,6.78894
2022-11-06T21:58:36.600Z,6.738586
2022-11-06T22:02:01.939Z,6.839294
2022-11-06T22:05:27.077Z,6.78894
2022-11-06T22:08:52.355Z,6.728516
2022-11-06T22:12:17.636Z,6.738586
2022-11-06T22:15:42.874Z,6.768799
2022-11-06T22:19:08.153Z,6.738586
2022-11-06T22:22:33.425Z,6.768799
2022-11-06T22:25:58.652Z,6.758728
2022-11-06T22:29:23.890Z,6.698303
2022-11-06T22:32:49.107Z,6.637878
2022-11-06T22:36:14.319Z,6.607666
2022-11-06T22:39:39.619Z,6.557312
2022-11-06T22:43:04.894Z,6.587524
2022-11-06T22:46:30.153Z,6.557312
2022-11-06T22:49:55.336Z,6.53717
2022-11-06T22:53:21.034Z,6.53717
2022-11-06T22:56:45.836Z,6.517029
2022-11-06T23:00:11.071Z,6.557312
2022-11-06T23:03:36.338Z,6.607666
2022-11-06T23:07:01.565Z,6.53717
2022-11-06T23:10:26.841Z,6.506958
2022-11-06T23:13:52.052Z,6.506958
2022-11-06T23:17:17.325Z,6.53717
2022-11-06T23:20:42.623Z,6.547241
2022-11-06T23:24:07.849Z,6.587524
2022-11-06T23:27:33.098Z,6.607666
2022-11-06T23:30:58.350Z,6.688232
2022-11-06T23:34:23.588Z,6.688232
2022-11-06T23:37:48.854Z,6.728516
2022-11-06T23:41:14.086Z,6.728516
2022-11-06T23:44:39.327Z,6.758728
2022-11-06T23:48:08.409Z,6.728516
2022-11-06T23:51:29.850Z,6.728516
2022-11-06T23:54:55.148Z,6.708374
2022-11-06T23:58:20.338Z,6.768799
